Time;durP1;ratioP1;P1;durP2;ratioP2;P2;SDS_P1;SDS_P2;PMS_P1;PMS_P2;Temp;Humidity;BMP_temperature;BMP_pressure;BME280_temperature;BME280_humidity;BME280_pressure;Samples;Min_cycle;Max_cycle;Signal;HPM_P1;HPM_P2
2023/11/30 00:00:16;;;;;;;25.48;12.73;;;0.40;99.90;;;;;;5021128;28;20207;-42
2023/11/30 00:02:42;;;;;;;24.13;12.10;;;0.40;99.90;;;;;;5021450;28;20219;-41
2023/11/30 00:05:08;;;;;;;23.13;12.05;;;0.40;99.90;;;;;;5021018;28;20192;-38
2023/11/30 00:07:35;;;;;;;25.00;12.95;;;0.30;99.90;;;;;;5019425;28;20191;-39
2023/11/30 00:10:03;;;;;;;18.67;10.70;;;0.40;99.90;;;;;;5020828;28;20271;-42
2023/11/30 00:12:29;;;;;;;17.25;10.00;;;0.40;99.90;;;;;;5020918;28;20202;-38
2023/11/30 00:14:55;;;;;;;22.25;11.23;;;0.30;99.90;;;;;;5020665;28;20642;-39
2023/11/30 00:17:21;;;;;;;21.30;11.40;;;0.30;99.90;;;;;;5020780;28;20288;-37
2023/11/30 00:19:47;;;;;;;22.45;12.93;;;0.30;99.90;;;;;;5052955;28;20195;-36
2023/11/30 00:22:13;;;;;;;22.15;11.57;;;0.20;99.90;;;;;;5005967;28;20218;-40
2023/11/30 00:24:39;;;;;;;19.67;10.60;;;0.20;99.90;;;;;;5020096;28;20198;-40
2023/11/30 00:27:04;;;;;;;29.73;10.07;;;0.20;99.90;;;;;;5020610;28;20191;-38
2023/11/30 00:29:30;;;;;;;32.25;10.07;;;0.20;99.90;;;;;;5020610;28;20207;-37
2023/11/30 00:31:56;;;;;;;17.45;10.02;;;0.10;99.90;;;;;;5020773;28;20723;-40
2023/11/30 00:34:22;;;;;;;20.75;8.02;;;0.10;99.90;;;;;;5035843;28;20192;-40
2023/11/30 00:36:48;;;;;;;19.80;8.75;;;0.10;99.90;;;;;;5019801;28;20184;-41
2023/11/30 00:39:14;;;;;;;22.77;9.70;;;0.10;99.90;;;;;;5019033;28;20666;-39
2023/11/30 00:41:40;;;;;;;19.95;9.90;;;0.00;99.90;;;;;;5019551;28;20224;-40
2023/11/30 00:44:05;;;;;;;23.70;11.82;;;0.00;99.90;;;;;;5020515;28;20279;-39
2023/11/30 00:46:31;;;;;;;23.65;11.50;;;-0.10;99.90;;;;;;5019775;28;20255;-39
2023/11/30 00:48:57;;;;;;;22.38;11.10;;;-0.10;99.90;;;;;;5018087;28;20192;-37
2023/11/30 00:51:23;;;;;;;20.35;10.73;;;-0.10;99.90;;;;;;5056397;28;20184;-39
2023/11/30 00:53:49;;;;;;;26.13;11.32;;;-0.10;99.90;;;;;;5024385;28;20626;-41
2023/11/30 00:56:15;;;;;;;18.52;10.07;;;-0.10;99.90;;;;;;5022764;28;20192;-38
2023/11/30 00:58:41;;;;;;;19.05;9.57;;;0.00;99.90;;;;;;5024694;28;20279;-36
2023/11/30 01:01:07;;;;;;;16.45;8.75;;;-0.10;99.90;;;;;;5024745;28;20203;-37
2023/11/30 01:03:32;;;;;;;18.33;9.70;;;-0.10;99.90;;;;;;5038649;28;20228;-38
2023/11/30 01:05:58;;;;;;;17.38;9.70;;;-0.10;99.90;;;;;;5021762;28;20295;-39
2023/11/30 01:08:24;;;;;;;25.70;12.23;;;-0.10;99.90;;;;;;5021857;28;20187;-41
2023/11/30 01:10:50;;;;;;;18.85;9.93;;;-0.10;99.90;;;;;;5024936;28;20200;-39
2023/11/30 01:13:16;;;;;;;24.80;11.43;;;-0.10;99.90;;;;;;5024332;28;20752;-39
2023/11/30 01:15:42;;;;;;;24.90;12.02;;;0.00;99.90;;;;;;5024023;28;20195;-38
2023/11/30 01:18:08;;;;;;;21.42;11.38;;;0.00;99.90;;;;;;5055633;28;20191;-35
2023/11/30 01:20:34;;;;;;;25.20;12.98;;;0.00;99.90;;;;;;5023922;28;20188;-39
2023/11/30 01:23:00;;;;;;;27.15;11.55;;;0.00;99.90;;;;;;5022786;28;20210;-37
2023/11/30 01:25:26;;;;;;;25.63;12.45;;;0.00;99.90;;;;;;5022243;28;20195;-37
2023/11/30 01:27:52;;;;;;;29.38;13.23;;;0.00;99.90;;;;;;5024131;28;20639;-37
2023/11/30 01:30:20;;;;;;;28.38;14.00;;;0.00;99.90;;;;;;5026716;28;20183;-38
2023/11/30 01:32:46;;;;;;;26.63;13.75;;;0.00;99.90;;;;;;5038777;28;20187;-39
2023/11/30 01:35:11;;;;;;;23.10;12.02;;;0.00;99.90;;;;;;5023864;28;20547;-37
2023/11/30 01:37:38;;;;;;;27.45;13.40;;;0.00;99.90;;;;;;5023904;28;20208;-37
2023/11/30 01:40:08;;;;;;;28.20;12.75;;;0.00;99.90;;;;;;5038403;28;20675;-39
2023/11/30 01:42:37;;;;;;;24.02;12.45;;;0.00;99.90;;;;;;5023795;28;20220;-38
2023/11/30 01:45:04;;;;;;;26.45;12.90;;;0.10;99.90;;;;;;5022223;28;20186;-36
2023/11/30 01:47:33;;;;;;;25.15;13.13;;;0.10;99.90;;;;;;5006320;28;20199;-38
2023/11/30 01:50:00;;;;;;;23.30;11.90;;;0.10;99.90;;;;;;5054589;28;20234;-37
2023/11/30 01:52:30;;;;;;;84.47;13.63;;;0.20;99.90;;;;;;5023002;28;20721;-37
2023/11/30 01:54:59;;;;;;;72.00;12.85;;;0.20;99.90;;;;;;5022655;28;20199;-37
2023/11/30 01:57:25;;;;;;;26.83;11.75;;;0.30;99.90;;;;;;5023459;28;20709;-37
2023/11/30 01:59:51;;;;;;;25.40;10.70;;;0.30;99.90;;;;;;5023091;28;20250;-39
2023/11/30 02:02:18;;;;;;;26.38;11.32;;;0.30;99.90;;;;;;5054069;28;20659;-43
2023/11/30 02:04:52;;;;;;;40.00;11.13;;;0.30;99.90;;;;;;5054580;28;20184;-38
2023/11/30 02:07:18;;;;;;;39.15;10.55;;;0.30;99.90;;;;;;5055083;28;20570;-38
2023/11/30 02:09:43;;;;;;;34.20;11.40;;;0.30;99.90;;;;;;5022712;28;20211;-37
2023/11/30 02:12:09;;;;;;;32.70;11.73;;;0.30;99.90;;;;;;5021114;28;20341;-38
2023/11/30 02:14:35;;;;;;;32.60;12.70;;;0.30;99.90;;;;;;5021585;28;20215;-39
2023/11/30 02:17:02;;;;;;;57.75;10.30;;;0.30;99.90;;;;;;5023003;28;20192;-37
2023/11/30 02:19:29;;;;;;;79.90;11.77;;;0.30;99.90;;;;;;5021632;28;20204;-38
2023/11/30 02:21:55;;;;;;;49.58;11.23;;;0.30;99.90;;;;;;5021748;28;20219;-40
2023/11/30 02:24:21;;;;;;;30.65;11.25;;;0.30;99.90;;;;;;5021615;28;20558;-38
2023/11/30 02:26:47;;;;;;;19.10;10.63;;;0.30;99.90;;;;;;5019618;28;20232;-43
2023/11/30 02:29:16;;;;;;;20.38;10.05;;;0.30;99.90;;;;;;5022813;28;20188;-38
2023/11/30 02:31:45;;;;;;;32.45;10.82;;;0.20;99.90;;;;;;5054399;28;20211;-41
2023/11/30 02:34:11;;;;;;;43.22;12.13;;;0.20;99.90;;;;;;5022297;28;20257;-38
2023/11/30 02:36:37;;;;;;;23.33;11.88;;;0.20;99.90;;;;;;5023397;28;20203;-36
2023/11/30 02:39:03;;;;;;;41.33;11.32;;;0.20;99.90;;;;;;5021163;28;20249;-41
2023/11/30 02:41:30;;;;;;;124.47;13.25;;;0.20;99.90;;;;;;5037684;28;20311;-38
2023/11/30 02:43:56;;;;;;;88.07;12.27;;;0.30;99.90;;;;;;5022890;28;20223;-39
2023/11/30 02:46:23;;;;;;;29.67;10.82;;;0.30;99.90;;;;;;5022822;28;20633;-39
2023/11/30 02:48:49;;;;;;;63.08;11.32;;;0.30;99.90;;;;;;5022534;28;20195;-39
2023/11/30 02:51:15;;;;;;;110.13;10.80;;;0.30;99.90;;;;;;5052697;28;20246;-37
2023/11/30 02:53:41;;;;;;;33.00;10.50;;;0.40;99.90;;;;;;5021513;28;20199;-37
2023/11/30 02:56:07;;;;;;;34.38;10.18;;;0.40;99.90;;;;;;5021337;28;20551;-38
2023/11/30 02:58:33;;;;;;;69.35;10.48;;;0.30;99.90;;;;;;5020836;28;20235;-36
2023/11/30 03:00:59;;;;;;;54.05;10.75;;;0.30;99.90;;;;;;5021079;28;20676;-38
2023/11/30 03:03:25;;;;;;;43.38;10.25;;;0.30;99.90;;;;;;5022108;28;20286;-42
2023/11/30 03:05:51;;;;;;;42.20;10.20;;;0.30;99.90;;;;;;5020812;28;21351;-39
2023/11/30 03:08:17;;;;;;;38.10;11.50;;;0.40;99.90;;;;;;5020404;28;20187;-39
2023/11/30 03:10:43;;;;;;;40.85;15.15;;;0.40;99.90;;;;;;5036634;28;20192;-42
2023/11/30 03:13:09;;;;;;;26.35;13.30;;;0.40;99.90;;;;;;4992094;28;20233;-39
2023/11/30 03:15:46;;;;;;;20.42;12.07;;;0.40;99.90;;;;;;5020051;28;20188;-38
2023/11/30 03:18:12;;;;;;;36.20;12.70;;;0.30;99.90;;;;;;5020255;28;20175;-37
2023/11/30 03:20:38;;;;;;;23.17;12.73;;;0.30;99.90;;;;;;4992737;28;20231;-38
2023/11/30 03:23:04;;;;;;;43.42;12.10;;;0.20;99.90;;;;;;5020452;28;20266;-37
2023/11/30 03:25:32;;;;;;;27.75;12.70;;;0.20;99.90;;;;;;5020304;28;20187;-37
2023/11/30 03:27:59;;;;;;;18.98;10.88;;;0.20;99.90;;;;;;5020709;28;20711;-37
2023/11/30 03:30:25;;;;;;;27.05;10.57;;;0.20;99.90;;;;;;5053869;28;20271;-37
2023/11/30 03:32:51;;;;;;;17.98;9.90;;;0.20;99.90;;;;;;5021906;28;20196;-36
2023/11/30 03:35:17;;;;;;;19.35;9.35;;;0.20;99.90;;;;;;5021408;28;20192;-38
2023/11/30 03:37:43;;;;;;;20.67;9.85;;;0.20;99.90;;;;;;5020904;28;20187;-43
2023/11/30 03:40:10;;;;;;;21.00;10.20;;;0.20;99.90;;;;;;5021334;28;20218;-39
2023/11/30 03:42:37;;;;;;;25.50;10.13;;;0.10;99.90;;;;;;5020277;28;20223;-38
2023/11/30 03:45:03;;;;;;;26.55;9.60;;;0.10;99.90;;;;;;5021150;28;20176;-38
2023/11/30 03:47:29;;;;;;;24.35;10.13;;;0.10;99.90;;;;;;5021121;28;20182;-36
2023/11/30 03:49:56;;;;;;;23.05;10.20;;;0.10;99.90;;;;;;5020471;28;20566;-37
2023/11/30 03:52:22;;;;;;;40.42;9.30;;;0.10;99.90;;;;;;5053544;28;20191;-39
2023/11/30 03:54:47;;;;;;;18.88;10.05;;;0.10;99.90;;;;;;5020106;28;20579;-39
2023/11/30 03:57:13;;;;;;;26.92;9.65;;;0.10;99.90;;;;;;5052762;28;20184;-37
2023/11/30 03:59:39;;;;;;;29.05;9.50;;;0.10;99.90;;;;;;5023378;28;20269;-38
2023/11/30 04:02:05;;;;;;;27.13;9.68;;;0.00;99.90;;;;;;5021070;28;20223;-37
2023/11/30 04:04:31;;;;;;;20.80;9.38;;;0.10;99.90;;;;;;5020566;28;20192;-37
2023/11/30 04:06:57;;;;;;;35.85;9.63;;;0.10;99.90;;;;;;5019366;28;20541;-40
2023/11/30 04:09:23;;;;;;;15.52;8.82;;;0.00;99.90;;;;;;5019191;28;20208;-38
2023/11/30 04:11:49;;;;;;;40.15;10.20;;;0.00;99.90;;;;;;5020709;28;20730;-37
2023/11/30 04:14:15;;;;;;;39.70;9.25;;;0.10;99.90;;;;;;5053219;28;20242;-42
2023/11/30 04:16:41;;;;;;;28.90;9.02;;;0.00;99.90;;;;;;5003887;28;20290;-39
2023/11/30 04:19:07;;;;;;;22.17;9.90;;;0.10;99.90;;;;;;5019785;28;20168;-37
2023/11/30 04:21:33;;;;;;;26.60;9.27;;;0.10;99.90;;;;;;5019862;28;20266;-37
2023/11/30 04:23:58;;;;;;;16.95;10.07;;;0.10;99.90;;;;;;5018767;28;20188;-37
2023/11/30 04:26:26;;;;;;;12.25;7.65;;;0.10;99.90;;;;;;5052561;28;20258;-37
2023/11/30 04:28:52;;;;;;;13.15;7.65;;;0.00;99.90;;;;;;5019649;28;20192;-37
2023/11/30 04:31:18;;;;;;;17.27;8.40;;;0.00;99.90;;;;;;5036226;28;20207;-37
2023/11/30 04:33:44;;;;;;;16.27;8.38;;;0.00;99.90;;;;;;5020906;28;20175;-39
2023/11/30 04:36:11;;;;;;;18.92;9.15;;;0.00;99.90;;;;;;5021086;28;20644;-40
2023/11/30 04:38:37;;;;;;;11.50;7.70;;;0.00;99.90;;;;;;5020417;28;20196;-39
2023/11/30 04:41:02;;;;;;;12.32;7.80;;;-0.10;99.90;;;;;;5019343;28;20641;-39
2023/11/30 04:43:28;;;;;;;16.50;7.95;;;-0.10;99.90;;;;;;5019928;28;20254;-40
2023/11/30 04:45:54;;;;;;;10.88;7.47;;;-0.10;99.90;;;;;;5019488;28;20184;-38
2023/11/30 04:48:20;;;;;;;9.82;6.88;;;-0.20;99.90;;;;;;5020741;28;20249;-40
2023/11/30 04:50:46;;;;;;;12.77;7.85;;;-0.20;99.90;;;;;;5018518;28;20242;-37
2023/11/30 04:53:12;;;;;;;15.70;7.97;;;-0.30;99.90;;;;;;5019262;28;20207;-44
2023/11/30 04:55:38;;;;;;;12.52;8.25;;;-0.30;99.90;;;;;;5020240;28;20200;-38
2023/11/30 04:58:04;;;;;;;12.13;7.97;;;-0.30;99.90;;;;;;5035938;28;20246;-37
2023/11/30 05:00:30;;;;;;;14.43;8.40;;;-0.40;99.90;;;;;;5019464;28;20188;-37
2023/11/30 05:02:56;;;;;;;13.25;8.38;;;-0.40;99.90;;;;;;5020248;28;20250;-41
2023/11/30 05:05:22;;;;;;;12.52;8.70;;;-0.40;99.90;;;;;;5020369;28;20196;-37
2023/11/30 05:07:49;;;;;;;13.35;9.00;;;-0.50;99.90;;;;;;5020665;28;20238;-40
2023/11/30 05:10:15;;;;;;;13.05;8.13;;;-0.50;99.90;;;;;;5020544;28;20596;-39
2023/11/30 05:12:41;;;;;;;12.35;8.40;;;-0.50;99.90;;;;;;5020164;28;20215;-39
2023/11/30 05:15:07;;;;;;;11.43;7.68;;;-0.50;99.90;;;;;;5021139;28;20183;-35
2023/11/30 05:17:33;;;;;;;11.18;8.00;;;-0.50;99.90;;;;;;5020063;28;20628;-39
2023/11/30 05:19:59;;;;;;;11.52;7.30;;;-0.50;99.90;;;;;;5020614;28;21531;-38
2023/11/30 05:22:25;;;;;;;12.48;7.65;;;-0.50;99.90;;;;;;5018685;28;20216;-38
2023/11/30 05:24:51;;;;;;;11.90;7.28;;;-0.50;99.90;;;;;;5019358;28;20242;-39
2023/11/30 05:27:17;;;;;;;10.13;7.00;;;-0.50;99.90;;;;;;5019481;28;21598;-39
2023/11/30 05:29:43;;;;;;;12.90;7.43;;;-0.50;99.90;;;;;;5020518;28;20200;-38
2023/11/30 05:32:09;;;;;;;10.75;7.22;;;-0.50;99.90;;;;;;5019038;28;20667;-38
2023/11/30 05:34:37;;;;;;;12.57;7.75;;;-0.50;99.90;;;;;;5021058;28;21288;-40
2023/11/30 05:37:04;;;;;;;12.68;8.85;;;-0.60;99.90;;;;;;5021298;28;20558;-39
2023/11/30 05:39:30;;;;;;;12.35;7.93;;;-0.60;99.90;;;;;;5023247;28;20924;-44
2023/11/30 05:41:58;;;;;;;14.15;8.93;;;-0.60;99.90;;;;;;5023583;28;20210;-38
2023/11/30 05:44:23;;;;;;;16.42;9.25;;;-0.60;99.90;;;;;;5024011;28;20184;-42
2023/11/30 05:46:50;;;;;;;16.98;9.88;;;-0.60;99.90;;;;;;5024073;28;20195;-36
2023/11/30 05:49:16;;;;;;;15.80;8.40;;;-0.60;99.90;;;;;;5024261;28;20249;-37
2023/11/30 05:51:42;;;;;;;12.65;8.35;;;-0.60;99.90;;;;;;5022176;28;20200;-37
2023/11/30 05:54:11;;;;;;;14.00;7.85;;;-0.70;99.90;;;;;;5023968;28;20211;-41
2023/11/30 05:56:36;;;;;;;14.43;9.02;;;-0.60;99.90;;;;;;5023078;28;20233;-40
2023/11/30 05:59:02;;;;;;;15.10;9.27;;;-0.60;99.90;;;;;;5023520;28;20667;-38
2023/11/30 06:01:28;;;;;;;18.67;10.27;;;-0.70;99.90;;;;;;5023560;28;20223;-38
2023/11/30 06:03:55;;;;;;;19.63;11.18;;;-0.70;99.90;;;;;;5022978;28;20211;-38
2023/11/30 06:06:21;;;;;;;12.30;7.60;;;-0.70;99.90;;;;;;5023077;28;20198;-37
2023/11/30 06:08:47;;;;;;;12.35;8.18;;;-0.70;99.90;;;;;;5022542;28;20196;-39
2023/11/30 06:11:17;;;;;;;13.68;7.95;;;-0.80;99.90;;;;;;5022083;28;20685;-38
2023/11/30 06:13:42;;;;;;;10.70;7.20;;;-0.80;99.90;;;;;;5023223;28;20211;-40
2023/11/30 06:16:09;;;;;;;12.15;8.32;;;-0.80;99.90;;;;;;5022873;28;20577;-38
2023/11/30 06:18:34;;;;;;;13.35;7.97;;;-0.80;99.90;;;;;;5022934;28;20195;-38
2023/11/30 06:21:00;;;;;;;13.05;7.82;;;-0.80;99.90;;;;;;5023569;28;20225;-37
2023/11/30 06:23:26;;;;;;;11.40;7.07;;;-0.80;99.90;;;;;;5022704;28;20685;-40
2023/11/30 06:25:52;;;;;;;13.10;8.07;;;-0.80;99.90;;;;;;5022677;28;20199;-39
2023/11/30 06:28:20;;;;;;;14.55;8.30;;;-0.80;99.90;;;;;;5021353;28;20207;-39
2023/11/30 06:30:47;;;;;;;11.85;7.47;;;-0.80;99.90;;;;;;5023096;28;20227;-39
2023/11/30 06:33:13;;;;;;;15.18;8.65;;;-0.80;99.90;;;;;;5022515;28;20192;-37
2023/11/30 06:35:39;;;;;;;12.23;8.27;;;-0.80;99.90;;;;;;5022828;28;20656;-38
2023/11/30 06:38:05;;;;;;;12.90;8.27;;;-0.80;99.90;;;;;;5022734;28;20246;-39
2023/11/30 06:40:30;;;;;;;12.65;8.63;;;-0.80;99.90;;;;;;5023263;28;21247;-39
2023/11/30 06:42:56;;;;;;;12.00;8.25;;;-0.80;99.90;;;;;;5022855;28;20230;-41
2023/11/30 06:45:22;;;;;;;17.83;8.77;;;-0.70;99.90;;;;;;5022277;28;20190;-38
2023/11/30 06:47:48;;;;;;;12.50;6.97;;;-0.70;99.90;;;;;;5021233;28;20172;-38
2023/11/30 06:50:14;;;;;;;10.38;7.00;;;-0.80;99.90;;;;;;5022336;28;20540;-38
2023/11/30 06:52:39;;;;;;;11.20;6.88;;;-0.80;99.90;;;;;;5022588;28;21215;-39
2023/11/30 06:55:06;;;;;;;9.77;6.63;;;-0.80;99.90;;;;;;5022298;28;20198;-39
2023/11/30 06:57:32;;;;;;;10.30;7.30;;;-0.70;99.90;;;;;;5021498;28;20191;-39
2023/11/30 06:59:57;;;;;;;8.85;6.80;;;-0.80;99.90;;;;;;5020367;28;20219;-37
2023/11/30 07:02:23;;;;;;;16.52;7.70;;;-0.70;99.90;;;;;;5021317;28;20596;-38
2023/11/30 07:04:49;;;;;;;11.20;7.80;;;-0.70;99.90;;;;;;5021096;28;20226;-37
2023/11/30 07:07:15;;;;;;;10.80;7.30;;;-0.70;99.90;;;;;;5021483;28;20184;-38
2023/11/30 07:09:41;;;;;;;11.25;7.53;;;-0.70;99.90;;;;;;5020591;28;20234;-40
2023/11/30 07:12:08;;;;;;;11.73;7.95;;;-0.70;99.90;;;;;;5016419;28;20196;-40
2023/11/30 07:14:33;;;;;;;11.70;7.07;;;-0.60;99.90;;;;;;5021676;28;20295;-40
2023/11/30 07:17:00;;;;;;;9.73;7.10;;;-0.60;99.90;;;;;;5052969;28;20266;-39
2023/11/30 07:19:26;;;;;;;9.35;6.80;;;-0.60;99.90;;;;;;5020881;28;20254;-40
2023/11/30 07:21:52;;;;;;;8.40;6.82;;;-0.60;99.90;;;;;;5020827;28;20227;-40
2023/11/30 07:24:17;;;;;;;11.50;6.38;;;-0.50;99.90;;;;;;5021436;28;20192;-38
2023/11/30 07:26:47;;;;;;;7.15;5.47;;;-0.50;99.90;;;;;;5052166;28;20566;-40
2023/11/30 07:29:14;;;;;;;8.52;5.78;;;-0.60;99.90;;;;;;5021413;28;20557;-39
2023/11/30 07:31:40;;;;;;;9.43;5.95;;;-0.60;99.90;;;;;;5020270;28;20203;-40
2023/11/30 07:34:06;;;;;;;9.90;6.03;;;-0.60;99.90;;;;;;5019752;28;20192;-39
2023/11/30 07:36:32;;;;;;;9.05;5.85;;;-0.60;99.90;;;;;;5019598;28;20199;-38
2023/11/30 07:38:58;;;;;;;10.60;7.63;;;-0.60;99.90;;;;;;5021161;28;20191;-37
2023/11/30 07:41:24;;;;;;;8.65;5.30;;;-0.70;99.90;;;;;;5020396;28;20203;-37
2023/11/30 07:43:50;;;;;;;11.10;6.25;;;-0.60;99.90;;;;;;5019392;28;20670;-38
2023/11/30 07:46:16;;;;;;;7.63;5.72;;;-0.60;99.90;;;;;;5020822;28;20565;-38
2023/11/30 07:48:42;;;;;;;7.95;4.75;;;-0.60;99.90;;;;;;5019994;28;20188;-38
2023/11/30 07:51:08;;;;;;;8.98;5.78;;;-0.60;99.90;;;;;;5021045;28;20652;-38
2023/11/30 07:53:33;;;;;;;8.15;5.22;;;-0.60;99.90;;;;;;5021126;28;20200;-38
2023/11/30 07:56:00;;;;;;;10.90;5.85;;;-0.50;99.90;;;;;;5021267;28;20207;-38
2023/11/30 07:58:26;;;;;;;7.63;5.50;;;-0.50;99.90;;;;;;5021340;28;20619;-38
2023/11/30 08:00:52;;;;;;;13.05;6.93;;;-0.50;99.90;;;;;;5020095;28;20202;-38
2023/11/30 08:03:18;;;;;;;7.68;5.72;;;-0.50;99.90;;;;;;5020352;28;20678;-37
2023/11/30 08:05:44;;;;;;;6.97;5.10;;;-0.50;99.90;;;;;;5019815;28;20843;-41
2023/11/30 08:08:11;;;;;;;7.38;5.22;;;-0.50;99.90;;;;;;5020522;28;20202;-39
2023/11/30 08:10:37;;;;;;;10.30;5.32;;;-0.50;99.90;;;;;;5052049;28;20184;-42
2023/11/30 08:13:03;;;;;;;7.95;5.50;;;-0.50;99.90;;;;;;5020439;28;20194;-40
2023/11/30 08:15:29;;;;;;;9.98;6.63;;;-0.50;99.90;;;;;;5021038;28;20176;-39
2023/11/30 08:17:55;;;;;;;11.55;6.75;;;-0.50;99.90;;;;;;5021513;28;20274;-39
2023/11/30 08:20:21;;;;;;;12.65;7.05;;;-0.40;99.90;;;;;;5023023;28;20195;-38
2023/11/30 08:22:47;;;;;;;10.05;7.10;;;-0.30;99.90;;;;;;5020595;28;20246;-39
2023/11/30 08:25:15;;;;;;;36.58;6.22;;;-0.20;99.90;;;;;;5020530;28;20299;-39
2023/11/30 08:27:42;;;;;;;10.40;6.30;;;-0.20;99.90;;;;;;5019422;28;20686;-39
2023/11/30 08:30:11;;;;;;;9.98;6.38;;;-0.10;99.90;;;;;;5021271;28;20184;-40
2023/11/30 08:32:37;;;;;;;10.77;5.90;;;-0.10;99.90;;;;;;5052016;28;20196;-43
2023/11/30 08:35:04;;;;;;;10.63;5.80;;;0.00;99.90;;;;;;5020239;28;20203;-38
2023/11/30 08:37:30;;;;;;;9.88;5.90;;;0.00;99.90;;;;;;5020373;28;20214;-38
2023/11/30 08:39:56;;;;;;;7.95;5.10;;;0.00;99.90;;;;;;5020769;28;20195;-36
2023/11/30 08:42:23;;;;;;;7.13;5.35;;;0.00;99.90;;;;;;5020039;28;20212;-38
2023/11/30 08:44:48;;;;;;;12.13;6.97;;;0.00;99.90;;;;;;5019866;28;20192;-40
2023/11/30 08:47:14;;;;;;;9.45;6.30;;;0.10;99.90;;;;;;5018908;28;20662;-38
2023/11/30 08:49:40;;;;;;;7.95;5.78;;;0.20;99.90;;;;;;5021044;28;20560;-37
2023/11/30 08:52:06;;;;;;;8.23;6.00;;;0.30;99.90;;;;;;5020814;28;21056;-39
2023/11/30 08:54:32;;;;;;;7.65;5.18;;;0.30;99.90;;;;;;5020561;28;20191;-37
2023/11/30 08:56:58;;;;;;;7.95;5.90;;;0.40;99.90;;;;;;5052248;28;20246;-38
2023/11/30 08:59:25;;;;;;;17.35;9.40;;;0.40;99.90;;;;;;5020117;28;20274;-38
2023/11/30 09:01:50;;;;;;;13.40;5.80;;;0.50;99.90;;;;;;5021250;28;20236;-37
2023/11/30 09:04:16;;;;;;;16.98;6.03;;;0.60;99.90;;;;;;5036199;28;20200;-38
2023/11/30 09:06:42;;;;;;;12.77;6.18;;;0.60;99.90;;;;;;5019043;28;20206;-38
2023/11/30 09:09:08;;;;;;;17.02;5.85;;;0.70;99.90;;;;;;5020242;28;20192;-40
2023/11/30 09:11:35;;;;;;;10.77;6.13;;;0.80;99.90;;;;;;5020115;28;20192;-37
2023/11/30 09:14:02;;;;;;;9.68;5.28;;;0.90;99.90;;;;;;5022842;28;20192;-41
2023/11/30 09:16:28;;;;;;;15.93;6.45;;;1.00;99.90;;;;;;5023666;28;20546;-39
2023/11/30 09:18:54;;;;;;;37.70;6.32;;;1.10;99.90;;;;;;5024241;28;20275;-39
2023/11/30 09:21:21;;;;;;;29.70;6.13;;;1.20;99.90;;;;;;5022340;28;20601;-42
2023/11/30 09:23:47;;;;;;;16.23;6.85;;;1.30;99.90;;;;;;5023860;28;20206;-38
2023/11/30 09:26:13;;;;;;;39.13;6.72;;;1.40;99.90;;;;;;5055642;28;20277;-38
2023/11/30 09:28:39;;;;;;;26.88;6.40;;;1.50;99.90;;;;;;5024122;28;20188;-40
2023/11/30 09:31:05;;;;;;;25.08;5.97;;;1.50;99.90;;;;;;5023448;28;20192;-41
2023/11/30 09:33:31;;;;;;;18.70;6.68;;;1.60;99.90;;;;;;5022248;28;20253;-39
2023/11/30 09:35:59;;;;;;;17.80;6.72;;;1.60;99.90;;;;;;5023714;28;20192;-40
2023/11/30 09:38:25;;;;;;;14.02;7.78;;;1.60;99.90;;;;;;5024155;28;20219;-41
2023/11/30 09:40:55;;;;;;;20.02;7.45;;;1.70;99.90;;;;;;5023771;28;20278;-39
2023/11/30 09:43:21;;;;;;;15.38;7.38;;;1.70;99.90;;;;;;5022826;28;20619;-40
2023/11/30 09:45:48;;;;;;;14.85;8.02;;;1.80;99.90;;;;;;5021213;28;20258;-39
2023/11/30 09:48:14;;;;;;;19.08;7.55;;;1.80;99.90;;;;;;5023644;28;20198;-39
2023/11/30 09:50:41;;;;;;;14.55;7.03;;;1.90;99.90;;;;;;5055046;28;20280;-39
2023/11/30 09:53:08;;;;;;;20.65;7.90;;;1.90;99.90;;;;;;5022761;28;21588;-38
2023/11/30 09:55:35;;;;;;;16.23;7.45;;;1.90;99.90;;;;;;5023165;28;20210;-43
2023/11/30 09:58:01;;;;;;;35.30;13.82;;;2.00;99.90;;;;;;5038181;28;20196;-38
2023/11/30 10:00:27;;;;;;;14.40;8.48;;;2.00;99.90;;;;;;5055482;28;20190;-39
2023/11/30 10:02:53;;;;;;;22.48;7.95;;;2.10;99.90;;;;;;5022568;28;20227;-37
2023/11/30 10:05:19;;;;;;;26.58;9.27;;;2.20;99.90;;;;;;5023439;28;20211;-41
2023/11/30 10:07:45;;;;;;;16.33;9.15;;;2.20;99.90;;;;;;5023851;28;21090;-40
2023/11/30 10:10:11;;;;;;;14.07;9.35;;;2.30;99.90;;;;;;5054947;28;20195;-38
2023/11/30 10:12:37;;;;;;;29.27;9.73;;;2.40;99.90;;;;;;5054724;28;20188;-38
2023/11/30 10:15:04;;;;;;;46.95;10.10;;;2.50;99.90;;;;;;5022635;28;20840;-40
2023/11/30 10:17:31;;;;;;;49.03;15.05;;;2.70;99.90;;;;;;5038195;28;20183;-37
2023/11/30 10:19:57;;;;;;;39.53;10.23;;;2.80;99.90;;;;;;5022384;28;20674;-37
2023/11/30 10:22:23;;;;;;;41.80;9.60;;;2.80;99.90;;;;;;5020085;28;20565;-41
2023/11/30 10:24:50;;;;;;;26.63;10.02;;;3.00;99.90;;;;;;5020070;28;20191;-42
2023/11/30 10:27:20;;;;;;;20.77;9.20;;;3.10;99.90;;;;;;5022408;28;20234;-38
2023/11/30 10:29:48;;;;;;;16.83;8.35;;;3.10;99.90;;;;;;5022599;28;20228;-38
2023/11/30 10:32:15;;;;;;;13.80;8.70;;;3.20;99.90;;;;;;5021991;28;21155;-39
2023/11/30 10:34:47;;;;;;;16.63;9.00;;;3.20;99.90;;;;;;5021260;28;20184;-40
2023/11/30 10:37:23;;;;;;;15.98;9.48;;;3.20;99.90;;;;;;5023136;28;20274;-40
2023/11/30 10:40:03;;;;;;;14.75;8.48;;;3.20;99.90;;;;;;5022694;28;20223;-38
2023/11/30 10:42:33;;;;;;;15.55;9.43;;;3.20;99.90;;;;;;5022757;28;21153;-38
2023/11/30 10:45:03;;;;;;;14.35;8.45;;;3.20;99.90;;;;;;5022990;28;20561;-40
2023/11/30 10:47:32;;;;;;;17.50;9.02;;;3.30;99.90;;;;;;5021704;28;20704;-39
2023/11/30 10:49:59;;;;;;;23.48;8.90;;;3.30;99.90;;;;;;5022445;28;20702;-39
2023/11/30 10:52:28;;;;;;;24.17;9.07;;;3.40;99.90;;;;;;5022536;28;20200;-40
2023/11/30 10:54:57;;;;;;;16.42;8.90;;;3.30;99.90;;;;;;5022786;28;20270;-38
2023/11/30 10:57:24;;;;;;;19.63;8.20;;;3.40;99.90;;;;;;5022348;28;20192;-41
2023/11/30 10:59:57;;;;;;;21.67;8.23;;;3.40;99.90;;;;;;5021222;28;20211;-37
2023/11/30 11:02:23;;;;;;;11.43;8.35;;;3.30;99.90;;;;;;5022134;28;20299;-39
2023/11/30 11:04:51;;;;;;;12.23;8.68;;;3.30;99.90;;;;;;5022209;28;20213;-37
2023/11/30 11:07:17;;;;;;;15.75;8.55;;;3.30;99.90;;;;;;5020987;28;20241;-38
2023/11/30 11:09:54;;;;;;;66.53;8.25;;;3.30;99.90;;;;;;5021663;28;20219;-38
2023/11/30 11:12:24;;;;;;;11.50;8.20;;;3.20;99.90;;;;;;5022330;28;20195;-44
2023/11/30 11:15:11;;;;;;;14.48;8.63;;;3.20;99.90;;;;;;5021970;28;20196;-41
2023/11/30 11:17:53;;;;;;;13.63;8.70;;;3.10;99.90;;;;;;5022120;28;20295;-39
2023/11/30 11:20:24;;;;;;;13.63;9.30;;;3.20;99.90;;;;;;5021497;28;20192;-42
2023/11/30 11:23:09;;;;;;;14.82;9.57;;;3.20;99.90;;;;;;5020370;28;20220;-39
2023/11/30 11:25:38;;;;;;;13.43;9.23;;;3.20;99.90;;;;;;5021708;28;20180;-37
2023/11/30 11:28:07;;;;;;;17.02;9.52;;;3.20;99.90;;;;;;5021820;28;20187;-39
2023/11/30 11:30:46;;;;;;;19.23;10.85;;;3.20;99.90;;;;;;5053599;28;20212;-39
2023/11/30 11:33:16;;;;;;;19.30;9.52;;;3.20;99.90;;;;;;5019952;28;20188;-40
2023/11/30 11:35:42;;;;;;;15.63;9.10;;;3.30;99.90;;;;;;5021634;28;20267;-39
2023/11/30 11:38:08;;;;;;;16.15;10.68;;;3.30;99.90;;;;;;5021714;28;20222;-37
2023/11/30 11:40:38;;;;;;;13.93;9.02;;;3.30;99.90;;;;;;5021130;28;20655;-38
2023/11/30 11:43:04;;;;;;;12.95;9.05;;;3.20;99.90;;;;;;5021802;28;20204;-41
2023/11/30 11:45:32;;;;;;;13.52;9.20;;;3.20;99.90;;;;;;5021660;28;20180;-37
2023/11/30 11:47:58;;;;;;;17.15;8.98;;;3.20;99.90;;;;;;5020550;28;20214;-40
2023/11/30 11:50:24;;;;;;;11.63;8.38;;;3.30;99.90;;;;;;5019284;28;20230;-39
2023/11/30 11:52:57;;;;;;;17.27;9.30;;;3.30;99.90;;;;;;5021457;28;20898;-37
2023/11/30 11:55:23;;;;;;;13.15;9.13;;;3.30;99.90;;;;;;5021154;28;20184;-41
2023/11/30 11:57:52;;;;;;;12.60;8.18;;;3.20;99.90;;;;;;5019737;28;20295;-39
2023/11/30 12:00:20;;;;;;;14.48;9.68;;;3.20;99.90;;;;;;5021253;28;20282;-37
2023/11/30 12:02:47;;;;;;;20.70;9.95;;;3.20;99.90;;;;;;5052358;28;20231;-40
2023/11/30 12:05:24;;;;;;;16.45;10.02;;;3.10;99.90;;;;;;5020986;28;20207;-39
2023/11/30 12:07:51;;;;;;;15.30;9.70;;;3.10;99.90;;;;;;5021040;28;20187;-41
2023/11/30 12:10:27;;;;;;;11.80;8.43;;;3.10;99.90;;;;;;5021184;28;20271;-39
2023/11/30 12:12:53;;;;;;;15.25;9.50;;;3.10;99.90;;;;;;5021163;28;20195;-38
2023/11/30 12:15:19;;;;;;;15.05;10.35;;;3.20;99.90;;;;;;5017801;28;20200;-39
2023/11/30 12:17:45;;;;;;;16.67;9.98;;;3.20;99.90;;;;;;5020001;28;20202;-37
2023/11/30 12:20:11;;;;;;;15.43;10.27;;;3.20;99.90;;;;;;5020405;28;20200;-38
2023/11/30 12:22:37;;;;;;;14.52;10.02;;;3.20;99.90;;;;;;5020600;28;20219;-38
2023/11/30 12:25:03;;;;;;;14.38;9.82;;;3.30;99.90;;;;;;5020391;28;20188;-38
2023/11/30 12:27:29;;;;;;;22.77;11.18;;;3.30;99.90;;;;;;5020039;28;20668;-39
2023/11/30 12:29:55;;;;;;;14.93;10.65;;;3.30;99.90;;;;;;5020389;28;20192;-40
2023/11/30 12:32:21;;;;;;;23.88;10.88;;;3.40;99.90;;;;;;5020745;28;20338;-39
2023/11/30 12:34:47;;;;;;;13.88;9.38;;;3.40;99.90;;;;;;5020944;28;20278;-38
2023/11/30 12:37:13;;;;;;;14.45;9.40;;;3.50;99.90;;;;;;5020426;28;20215;-39